»·PEaware :: IBE2740 KMFR-KYKM

IBE2740 :: KMFR-KYKM

FLIGHT INFORMATION

Flight Status: Arrived
Operator:
Iberia
More flights by this operator :: More flights under this callsign
Pilot: Miguel Angel F. (25809)
Aircraft: AIRBUS A320
(A320)
More flights by this aircraft type
Origin: KMFR Rogue Valley Intl-Medford
United States
Destination: KYKM Yakima Air Term/Mcallister
United States
More flights between these airports :: More routes between these airports
Route: +BRUTE7 CUTTR V575 DSD YKM
File this flight plan on PilotEdge
Remarks: RMK / SIMBRIEF
Altitude:
(Current/Filed)
33,000ft
Speed:
(Current/Filed)
431kts
Departed: 30-Apr-20 03:48 PM
Arrived: 30-Apr-20 04:40 PM
Distance/Time
Traveled:
271nm/0:51
Distance/Time
To Go:
Arrived

Flight Plot

Page will automatically refresh every two minutes.


Map Options




Map Legend


Flown Route
Filed Route
Departure Airport
Arrival Airport
Navaid (VOR, NDB)
Fix

Horizontal Profiles

Position Reports

Time Latitude Longitude Heading Altitude Ground
Speed
30-Apr-20 15:15 42.368111 -122.872344 132 1322ft 0kts
30-Apr-20 15:16 42.368111 -122.872344 132 1322ft 0kts
30-Apr-20 15:17 42.368111 -122.872344 132 1322ft 0kts
30-Apr-20 15:18 42.368111 -122.872344 132 1322ft 0kts
30-Apr-20 15:19 42.368111 -122.872344 132 1322ft 0kts
30-Apr-20 15:20 42.368111 -122.872344 132 1322ft 0kts
30-Apr-20 15:22 42.368111 -122.872344 132 1322ft 0kts
30-Apr-20 15:23 42.368111 -122.872344 132 1322ft 0kts
30-Apr-20 15:24 42.368111 -122.872344 132 1322ft 0kts
30-Apr-20 15:25 42.368111 -122.872344 132 1322ft 0kts
30-Apr-20 15:26 42.368111 -122.872344 132 1322ft 0kts
30-Apr-20 15:27 42.368111 -122.872344 132 1322ft 0kts
30-Apr-20 15:28 42.368111 -122.872344 132 1322ft 0kts
30-Apr-20 15:29 42.368111 -122.872344 132 1322ft 0kts
30-Apr-20 15:30 42.368111 -122.872344 132 1322ft 0kts
30-Apr-20 15:31 42.368111 -122.872344 132 1322ft 0kts
30-Apr-20 15:32 42.368111 -122.872344 132 1322ft 0kts
30-Apr-20 15:33 42.368111 -122.872344 132 1322ft 0kts
30-Apr-20 15:34 42.368111 -122.872344 132 1322ft 0kts
30-Apr-20 15:35 42.368111 -122.872344 132 1322ft 0kts
30-Apr-20 15:36 42.368112 -122.872344 132 1322ft 0kts
30-Apr-20 15:36 42.368104 -122.872250 64 1322ft 1kts
30-Apr-20 15:38 42.368608 -122.871630 82 1322ft 0kts
30-Apr-20 15:39 42.368608 -122.871630 82 1322ft 0kts
30-Apr-20 15:39 42.368538 -122.872004 68 1322ft 2kts
30-Apr-20 15:40 42.368333 -122.872766 69 1321ft 2kts
30-Apr-20 15:42 42.368297 -122.872899 69 1321ft 0kts
30-Apr-20 15:42 42.368306 -122.872865 69 1321ft 0kts
30-Apr-20 15:43 42.368429 -122.872355 80 1322ft 6kts
30-Apr-20 15:44 42.365692 -122.870008 156 1327ft 21kts
30-Apr-20 15:45 42.363530 -122.868673 105 1330ft 0kts
30-Apr-20 15:46 42.363770 -122.867734 43 1331ft 9kts
30-Apr-20 15:47 42.374161 -122.872864 340 1328ft 147kts
30-Apr-20 15:48 42.421259 -122.878095 29 4141ft 194kts
30-Apr-20 15:49 42.432280 -122.804216 113 6737ft 254kts
30-Apr-20 15:50 42.409147 -122.702616 83 9568ft 304kts
30-Apr-20 15:51 42.439660 -122.588963 32 11161ft 360kts
30-Apr-20 15:52 42.536334 -122.582414 341 13624ft 360kts
30-Apr-20 15:53 42.627250 -122.639446 317 16300ft 362kts
30-Apr-20 15:54 42.719404 -122.693727 9 18642ft 407kts
30-Apr-20 15:55 42.820032 -122.612375 30 20735ft 430kts
30-Apr-20 15:56 42.922382 -122.521581 30 22657ft 444kts
30-Apr-20 15:57 43.027850 -122.427409 30 24409ft 456kts
30-Apr-20 15:58 43.135802 -122.330583 31 26022ft 468kts
30-Apr-20 15:59 43.247817 -122.229627 31 26656ft 496kts
30-Apr-20 16:00 43.366203 -122.122418 31 27174ft 519kts
30-Apr-20 16:01 43.487736 -122.012004 31 28112ft 523kts
30-Apr-20 16:02 43.609310 -121.900928 31 29228ft 523kts
30-Apr-20 16:03 43.730392 -121.789732 31 30387ft 522kts
30-Apr-20 16:04 43.851454 -121.677989 31 31444ft 523kts
30-Apr-20 16:05 43.972566 -121.565644 31 32478ft 523kts
30-Apr-20 16:06 44.092655 -121.453704 31 33105ft 522kts
30-Apr-20 16:07 44.204606 -121.348838 32 33115ft 523kts
30-Apr-20 16:08 44.341228 -121.291187 0 33129ft 509kts
30-Apr-20 16:09 44.481655 -121.272476 1 33099ft 507kts
30-Apr-20 16:10 44.620929 -121.242560 19 33099ft 519kts
30-Apr-20 16:11 44.743023 -121.133945 33 33141ft 523kts
30-Apr-20 16:12 44.865944 -121.025048 18 33119ft 522kts
30-Apr-20 16:13 45.004427 -121.021768 337 32067ft 493kts
30-Apr-20 16:14 45.132070 -121.073851 338 28961ft 501kts
30-Apr-20 16:15 45.267152 -121.128411 339 25376ft 507kts
30-Apr-20 16:16 45.401899 -121.097956 29 24129ft 522kts
30-Apr-20 16:17 45.526536 -120.995043 29 22819ft 509kts
30-Apr-20 16:18 45.646008 -120.896323 28 20269ft 490kts
30-Apr-20 16:19 45.762166 -120.800778 28 17672ft 471kts
30-Apr-20 16:20 45.873365 -120.709416 27 15182ft 450kts
30-Apr-20 16:21 45.983325 -120.639340 2 12676ft 421kts
30-Apr-20 16:22 46.095317 -120.623842 2 11063ft 378kts
30-Apr-20 16:23 46.190466 -120.610477 1 11028ft 310kts
30-Apr-20 16:24 46.275044 -120.598496 1 11021ft 304kts
30-Apr-20 16:25 46.358094 -120.586642 1 9791ft 294kts
30-Apr-20 16:26 46.429355 -120.554083 24 8917ft 250kts
30-Apr-20 16:27 46.489698 -120.507313 23 7986ft 242kts
30-Apr-20 16:28 46.540842 -120.448359 80 6947ft 248kts
30-Apr-20 16:29 46.510424 -120.365269 136 6065ft 232kts
30-Apr-20 16:30 46.468763 -120.298773 136 5525ft 215kts
30-Apr-20 16:31 46.453949 -120.223659 41 5039ft 218kts
30-Apr-20 16:32 46.491537 -120.235444 287 5022ft 135kts
30-Apr-20 16:33 46.504631 -120.287344 285 4572ft 136kts
30-Apr-20 16:34 46.517408 -120.338702 285 3776ft 134kts
30-Apr-20 16:35 46.530072 -120.389653 286 3092ft 133kts
30-Apr-20 16:36 46.542780 -120.440264 290 2371ft 131kts
30-Apr-20 16:37 46.555185 -120.490184 290 1677ft 130kts
30-Apr-20 16:38 46.567397 -120.538960 289 1066ft 113kts
30-Apr-20 16:39 46.570896 -120.549297 17 1085ft 0kts
30-Apr-20 16:40 46.570898 -120.549296 18 1085ft 0kts
30-Apr-20 16:41 46.570102 -120.545086 110 1077ft 26kts
30-Apr-20 16:42 46.569583 -120.540167 55 1068ft 0kts

Navigation Log

Ident Type
Flight plan parsing failed, navigation log unavailable